sensor_id;sensor_type;location;lat;lon;timestamp;temperature;humidity
4556;DHT22;2290;48.674;9.018;2024-02-23T00:01:57;5.50;99.90
4556;DHT22;2290;48.674;9.018;2024-02-23T00:04:22;5.50;99.90
4556;DHT22;2290;48.674;9.018;2024-02-23T00:06:48;5.50;99.90
4556;DHT22;2290;48.674;9.018;2024-02-23T00:09:14;5.50;99.90
4556;DHT22;2290;48.674;9.018;2024-02-23T00:11:40;5.50;99.90
4556;DHT22;2290;48.674;9.018;2024-02-23T00:14:12;5.50;99.90
4556;DHT22;2290;48.674;9.018;2024-02-23T00:16:40;5.50;99.90
4556;DHT22;2290;48.674;9.018;2024-02-23T00:19:08;5.60;99.90
4556;DHT22;2290;48.674;9.018;2024-02-23T00:21:35;5.60;99.90
4556;DHT22;2290;48.674;9.018;2024-02-23T00:24:01;5.60;99.90
4556;DHT22;2290;48.674;9.018;2024-02-23T00:26:28;5.60;99.90
4556;DHT22;2290;48.674;9.018;2024-02-23T00:28:55;5.60;99.90
4556;DHT22;2290;48.674;9.018;2024-02-23T00:31:21;5.60;99.90
4556;DHT22;2290;48.674;9.018;2024-02-23T00:33:47;5.70;99.90
4556;DHT22;2290;48.674;9.018;2024-02-23T00:36:13;5.60;99.90
4556;DHT22;2290;48.674;9.018;2024-02-23T00:38:39;5.70;99.90
4556;DHT22;2290;48.674;9.018;2024-02-23T00:41:05;5.70;99.90
4556;DHT22;2290;48.674;9.018;2024-02-23T00:43:38;5.80;99.90
4556;DHT22;2290;48.674;9.018;2024-02-23T00:46:05;5.80;99.90
4556;DHT22;2290;48.674;9.018;2024-02-23T00:48:32;5.80;99.90
4556;DHT22;2290;48.674;9.018;2024-02-23T00:50:57;5.90;99.90
4556;DHT22;2290;48.674;9.018;2024-02-23T00:53:23;5.90;99.90
4556;DHT22;2290;48.674;9.018;2024-02-23T00:55:50;5.90;99.90
4556;DHT22;2290;48.674;9.018;2024-02-23T00:58:15;5.80;99.90
4556;DHT22;2290;48.674;9.018;2024-02-23T01:00:42;5.80;99.90
4556;DHT22;2290;48.674;9.018;2024-02-23T01:03:08;5.80;99.90
4556;DHT22;2290;48.674;9.018;2024-02-23T01:05:33;5.80;99.90
4556;DHT22;2290;48.674;9.018;2024-02-23T01:07:59;5.80;99.90
4556;DHT22;2290;48.674;9.018;2024-02-23T01:10:24;5.80;99.90
4556;DHT22;2290;48.674;9.018;2024-02-23T01:12:50;5.90;99.90
4556;DHT22;2290;48.674;9.018;2024-02-23T01:15:16;5.80;99.90
4556;DHT22;2290;48.674;9.018;2024-02-23T01:17:44;5.80;99.90
4556;DHT22;2290;48.674;9.018;2024-02-23T01:20:10;5.80;99.90
4556;DHT22;2290;48.674;9.018;2024-02-23T01:22:36;5.90;99.90
4556;DHT22;2290;48.674;9.018;2024-02-23T01:25:02;5.80;99.90
4556;DHT22;2290;48.674;9.018;2024-02-23T01:27:29;5.90;99.90
4556;DHT22;2290;48.674;9.018;2024-02-23T01:29:56;5.90;99.90
4556;DHT22;2290;48.674;9.018;2024-02-23T01:32:22;5.90;99.90
4556;DHT22;2290;48.674;9.018;2024-02-23T01:34:48;5.80;99.90
4556;DHT22;2290;48.674;9.018;2024-02-23T01:37:15;5.70;99.90
4556;DHT22;2290;48.674;9.018;2024-02-23T01:39:40;5.70;99.90
4556;DHT22;2290;48.674;9.018;2024-02-23T01:42:06;5.60;99.90
4556;DHT22;2290;48.674;9.018;2024-02-23T01:44:32;5.70;99.90
4556;DHT22;2290;48.674;9.018;2024-02-23T01:46:57;5.70;99.90
4556;DHT22;2290;48.674;9.018;2024-02-23T01:49:23;5.60;99.90
4556;DHT22;2290;48.674;9.018;2024-02-23T01:51:56;5.70;99.90
4556;DHT22;2290;48.674;9.018;2024-02-23T01:54:24;5.70;99.90
4556;DHT22;2290;48.674;9.018;2024-02-23T01:56:51;5.60;99.90
4556;DHT22;2290;48.674;9.018;2024-02-23T01:59:18;5.60;99.90
4556;DHT22;2290;48.674;9.018;2024-02-23T02:01:45;5.60;99.90
4556;DHT22;2290;48.674;9.018;2024-02-23T02:04:11;5.60;99.90
4556;DHT22;2290;48.674;9.018;2024-02-23T02:06:37;5.60;99.90
4556;DHT22;2290;48.674;9.018;2024-02-23T02:09:04;5.60;99.90
4556;DHT22;2290;48.674;9.018;2024-02-23T02:11:29;5.60;99.90
4556;DHT22;2290;48.674;9.018;2024-02-23T02:13:55;5.60;99.90
4556;DHT22;2290;48.674;9.018;2024-02-23T02:16:23;5.60;99.90
4556;DHT22;2290;48.674;9.018;2024-02-23T02:18:48;5.70;99.90
4556;DHT22;2290;48.674;9.018;2024-02-23T02:21:14;5.70;99.90
4556;DHT22;2290;48.674;9.018;2024-02-23T02:23:40;5.70;99.90
4556;DHT22;2290;48.674;9.018;2024-02-23T02:26:07;5.70;99.90
4556;DHT22;2290;48.674;9.018;2024-02-23T02:28:34;5.70;99.90
4556;DHT22;2290;48.674;9.018;2024-02-23T02:31:01;5.60;99.90
4556;DHT22;2290;48.674;9.018;2024-02-23T02:33:27;5.60;99.90
4556;DHT22;2290;48.674;9.018;2024-02-23T02:35:54;5.60;99.90
4556;DHT22;2290;48.674;9.018;2024-02-23T02:38:20;5.60;99.90
4556;DHT22;2290;48.674;9.018;2024-02-23T02:40:45;5.50;99.90
4556;DHT22;2290;48.674;9.018;2024-02-23T02:43:12;5.50;99.90
4556;DHT22;2290;48.674;9.018;2024-02-23T02:45:39;5.50;99.90
4556;DHT22;2290;48.674;9.018;2024-02-23T02:48:05;5.60;99.90
4556;DHT22;2290;48.674;9.018;2024-02-23T02:50:31;5.50;99.90
4556;DHT22;2290;48.674;9.018;2024-02-23T02:52:57;5.50;99.90
4556;DHT22;2290;48.674;9.018;2024-02-23T02:55:23;5.50;99.90
4556;DHT22;2290;48.674;9.018;2024-02-23T02:57:50;5.50;99.90
4556;DHT22;2290;48.674;9.018;2024-02-23T03:00:16;5.40;99.90
4556;DHT22;2290;48.674;9.018;2024-02-23T03:02:41;5.40;99.90
4556;DHT22;2290;48.674;9.018;2024-02-23T03:05:07;5.40;99.90
4556;DHT22;2290;48.674;9.018;2024-02-23T03:07:33;5.30;99.90
4556;DHT22;2290;48.674;9.018;2024-02-23T03:10:00;5.30;99.90
4556;DHT22;2290;48.674;9.018;2024-02-23T03:12:27;5.30;99.90
4556;DHT22;2290;48.674;9.018;2024-02-23T03:14:52;5.40;99.90
4556;DHT22;2290;48.674;9.018;2024-02-23T03:17:18;5.30;99.90
4556;DHT22;2290;48.674;9.018;2024-02-23T03:19:44;5.30;99.90
4556;DHT22;2290;48.674;9.018;2024-02-23T03:22:09;5.20;99.90
4556;DHT22;2290;48.674;9.018;2024-02-23T03:24:35;5.20;99.90
4556;DHT22;2290;48.674;9.018;2024-02-23T03:27:00;5.20;99.90
4556;DHT22;2290;48.674;9.018;2024-02-23T03:29:27;5.40;99.90
4556;DHT22;2290;48.674;9.018;2024-02-23T03:31:57;5.30;99.90
4556;DHT22;2290;48.674;9.018;2024-02-23T03:34:23;5.20;99.90
4556;DHT22;2290;48.674;9.018;2024-02-23T03:36:50;5.20;99.90
4556;DHT22;2290;48.674;9.018;2024-02-23T03:39:16;5.20;99.90
4556;DHT22;2290;48.674;9.018;2024-02-23T03:41:42;5.20;99.90
4556;DHT22;2290;48.674;9.018;2024-02-23T03:44:09;5.10;99.90
4556;DHT22;2290;48.674;9.018;2024-02-23T03:46:36;5.20;99.90
4556;DHT22;2290;48.674;9.018;2024-02-23T03:49:02;5.20;99.90
4556;DHT22;2290;48.674;9.018;2024-02-23T03:51:27;5.20;99.90
4556;DHT22;2290;48.674;9.018;2024-02-23T03:53:54;5.20;99.90
4556;DHT22;2290;48.674;9.018;2024-02-23T03:56:20;5.20;99.90
4556;DHT22;2290;48.674;9.018;2024-02-23T03:58:47;5.20;99.90
4556;DHT22;2290;48.674;9.018;2024-02-23T04:01:16;5.20;99.90
4556;DHT22;2290;48.674;9.018;2024-02-23T04:03:42;5.20;99.90
4556;DHT22;2290;48.674;9.018;2024-02-23T04:06:07;5.20;99.90
4556;DHT22;2290;48.674;9.018;2024-02-23T04:08:34;5.20;99.90
4556;DHT22;2290;48.674;9.018;2024-02-23T04:11:02;5.20;99.90
4556;DHT22;2290;48.674;9.018;2024-02-23T04:13:28;5.20;99.90
4556;DHT22;2290;48.674;9.018;2024-02-23T04:15:53;5.10;99.90
4556;DHT22;2290;48.674;9.018;2024-02-23T04:18:19;5.10;99.90
4556;DHT22;2290;48.674;9.018;2024-02-23T04:20:45;5.10;99.90
4556;DHT22;2290;48.674;9.018;2024-02-23T04:23:10;5.10;99.90
4556;DHT22;2290;48.674;9.018;2024-02-23T04:25:37;5.10;99.90
4556;DHT22;2290;48.674;9.018;2024-02-23T04:28:03;5.10;99.90
4556;DHT22;2290;48.674;9.018;2024-02-23T04:30:28;5.10;99.90
4556;DHT22;2290;48.674;9.018;2024-02-23T04:32:54;5.10;99.90
4556;DHT22;2290;48.674;9.018;2024-02-23T04:35:22;5.20;99.90
4556;DHT22;2290;48.674;9.018;2024-02-23T04:37:49;5.10;99.90
4556;DHT22;2290;48.674;9.018;2024-02-23T04:40:15;5.10;99.90
4556;DHT22;2290;48.674;9.018;2024-02-23T04:42:43;5.10;99.90
4556;DHT22;2290;48.674;9.018;2024-02-23T04:45:09;5.20;99.90
4556;DHT22;2290;48.674;9.018;2024-02-23T04:47:35;5.30;99.90
4556;DHT22;2290;48.674;9.018;2024-02-23T04:50:00;5.30;99.90
4556;DHT22;2290;48.674;9.018;2024-02-23T04:52:27;5.30;99.90
4556;DHT22;2290;48.674;9.018;2024-02-23T04:54:54;5.40;99.90
4556;DHT22;2290;48.674;9.018;2024-02-23T04:57:20;5.40;99.90
4556;DHT22;2290;48.674;9.018;2024-02-23T04:59:45;5.40;99.90
4556;DHT22;2290;48.674;9.018;2024-02-23T05:02:12;5.40;99.90
4556;DHT22;2290;48.674;9.018;2024-02-23T05:04:38;5.40;99.90
4556;DHT22;2290;48.674;9.018;2024-02-23T05:07:04;5.40;99.90
4556;DHT22;2290;48.674;9.018;2024-02-23T05:09:30;5.40;99.90
4556;DHT22;2290;48.674;9.018;2024-02-23T05:11:58;5.40;99.90
4556;DHT22;2290;48.674;9.018;2024-02-23T05:14:25;5.40;99.90
4556;DHT22;2290;48.674;9.018;2024-02-23T05:16:51;5.40;99.90
4556;DHT22;2290;48.674;9.018;2024-02-23T05:19:17;5.50;99.90
4556;DHT22;2290;48.674;9.018;2024-02-23T05:21:43;5.50;99.90
4556;DHT22;2290;48.674;9.018;2024-02-23T05:24:12;5.50;99.90
4556;DHT22;2290;48.674;9.018;2024-02-23T05:26:38;5.50;99.90
4556;DHT22;2290;48.674;9.018;2024-02-23T05:29:03;5.40;99.90
4556;DHT22;2290;48.674;9.018;2024-02-23T05:31:51;5.40;99.90
4556;DHT22;2290;48.674;9.018;2024-02-23T05:34:18;5.50;99.90
4556;DHT22;2290;48.674;9.018;2024-02-23T05:36:45;5.50;99.90
4556;DHT22;2290;48.674;9.018;2024-02-23T05:39:12;5.50;99.90
4556;DHT22;2290;48.674;9.018;2024-02-23T05:41:39;5.50;99.90
4556;DHT22;2290;48.674;9.018;2024-02-23T05:44:05;5.50;99.90
4556;DHT22;2290;48.674;9.018;2024-02-23T05:46:32;5.50;99.90
4556;DHT22;2290;48.674;9.018;2024-02-23T05:48:58;5.50;99.90
4556;DHT22;2290;48.674;9.018;2024-02-23T05:51:24;5.50;99.90
4556;DHT22;2290;48.674;9.018;2024-02-23T05:53:51;5.50;99.90
4556;DHT22;2290;48.674;9.018;2024-02-23T05:56:17;5.40;99.90
4556;DHT22;2290;48.674;9.018;2024-02-23T05:58:43;5.40;99.90
4556;DHT22;2290;48.674;9.018;2024-02-23T06:01:09;5.40;99.90
4556;DHT22;2290;48.674;9.018;2024-02-23T06:03:36;5.30;99.90
4556;DHT22;2290;48.674;9.018;2024-02-23T06:06:01;5.30;99.90
4556;DHT22;2290;48.674;9.018;2024-02-23T06:08:28;5.20;99.90
4556;DHT22;2290;48.674;9.018;2024-02-23T06:10:54;5.20;99.90
4556;DHT22;2290;48.674;9.018;2024-02-23T06:13:19;5.20;99.90
4556;DHT22;2290;48.674;9.018;2024-02-23T06:15:46;5.20;99.90
4556;DHT22;2290;48.674;9.018;2024-02-23T06:18:13;5.20;99.90
4556;DHT22;2290;48.674;9.018;2024-02-23T06:20:41;5.30;99.90
4556;DHT22;2290;48.674;9.018;2024-02-23T06:23:07;5.30;99.90
4556;DHT22;2290;48.674;9.018;2024-02-23T06:25:34;5.40;99.90
4556;DHT22;2290;48.674;9.018;2024-02-23T06:28:00;5.40;99.90
4556;DHT22;2290;48.674;9.018;2024-02-23T06:30:26;5.40;99.90
4556;DHT22;2290;48.674;9.018;2024-02-23T06:32:51;5.40;99.90
4556;DHT22;2290;48.674;9.018;2024-02-23T06:35:17;5.50;99.90
4556;DHT22;2290;48.674;9.018;2024-02-23T06:37:44;5.50;99.90
4556;DHT22;2290;48.674;9.018;2024-02-23T06:40:09;5.50;99.90
4556;DHT22;2290;48.674;9.018;2024-02-23T06:42:36;5.50;99.90
4556;DHT22;2290;48.674;9.018;2024-02-23T06:45:02;5.50;99.90
4556;DHT22;2290;48.674;9.018;2024-02-23T06:47:28;5.50;99.90
4556;DHT22;2290;48.674;9.018;2024-02-23T06:49:54;5.50;99.90
4556;DHT22;2290;48.674;9.018;2024-02-23T06:52:19;5.50;99.90
4556;DHT22;2290;48.674;9.018;2024-02-23T06:54:46;5.60;99.90
4556;DHT22;2290;48.674;9.018;2024-02-23T06:57:12;5.60;99.90
4556;DHT22;2290;48.674;9.018;2024-02-23T06:59:37;5.50;99.90
4556;DHT22;2290;48.674;9.018;2024-02-23T07:02:03;5.50;99.90
4556;DHT22;2290;48.674;9.018;2024-02-23T07:04:29;5.50;99.90
4556;DHT22;2290;48.674;9.018;2024-02-23T07:06:55;5.50;99.90
4556;DHT22;2290;48.674;9.018;2024-02-23T07:09:21;5.40;99.90
4556;DHT22;2290;48.674;9.018;2024-02-23T07:11:46;5.40;99.90
4556;DHT22;2290;48.674;9.018;2024-02-23T07:14:12;5.30;99.90
4556;DHT22;2290;48.674;9.018;2024-02-23T07:16:40;5.30;99.90
4556;DHT22;2290;48.674;9.018;2024-02-23T07:19:07;5.20;99.90
4556;DHT22;2290;48.674;9.018;2024-02-23T07:21:33;5.10;99.90
4556;DHT22;2290;48.674;9.018;2024-02-23T07:23:59;5.10;99.90
4556;DHT22;2290;48.674;9.018;2024-02-23T07:26:26;5.30;99.90
4556;DHT22;2290;48.674;9.018;2024-02-23T07:28:53;5.20;99.90
4556;DHT22;2290;48.674;9.018;2024-02-23T07:31:20;5.20;99.90
4556;DHT22;2290;48.674;9.018;2024-02-23T07:33:46;5.20;99.90
4556;DHT22;2290;48.674;9.018;2024-02-23T07:36:14;5.30;99.90
4556;DHT22;2290;48.674;9.018;2024-02-23T07:38:41;5.20;99.90
4556;DHT22;2290;48.674;9.018;2024-02-23T07:41:09;5.20;99.90
4556;DHT22;2290;48.674;9.018;2024-02-23T07:43:34;5.20;99.90
4556;DHT22;2290;48.674;9.018;2024-02-23T07:46:01;5.30;99.90
4556;DHT22;2290;48.674;9.018;2024-02-23T07:48:28;5.30;99.90
4556;DHT22;2290;48.674;9.018;2024-02-23T07:50:53;5.20;99.90
4556;DHT22;2290;48.674;9.018;2024-02-23T07:53:19;5.20;99.90
4556;DHT22;2290;48.674;9.018;2024-02-23T07:55:44;5.10;99.90
4556;DHT22;2290;48.674;9.018;2024-02-23T07:58:10;5.10;99.90
4556;DHT22;2290;48.674;9.018;2024-02-23T08:00:36;5.10;99.90
4556;DHT22;2290;48.674;9.018;2024-02-23T08:03:05;5.10;99.90
4556;DHT22;2290;48.674;9.018;2024-02-23T08:05:31;5.20;99.90
4556;DHT22;2290;48.674;9.018;2024-02-23T08:07:58;5.20;99.90
4556;DHT22;2290;48.674;9.018;2024-02-23T08:10:24;5.20;99.90
4556;DHT22;2290;48.674;9.018;2024-02-23T08:12:51;5.10;99.90
4556;DHT22;2290;48.674;9.018;2024-02-23T08:15:16;5.10;99.90
4556;DHT22;2290;48.674;9.018;2024-02-23T08:17:42;5.10;99.90
4556;DHT22;2290;48.674;9.018;2024-02-23T08:20:09;5.00;99.90
4556;DHT22;2290;48.674;9.018;2024-02-23T08:22:35;5.00;99.90
4556;DHT22;2290;48.674;9.018;2024-02-23T08:25:02;5.10;99.90
4556;DHT22;2290;48.674;9.018;2024-02-23T08:27:27;5.10;99.90
4556;DHT22;2290;48.674;9.018;2024-02-23T08:29:53;5.10;99.90
4556;DHT22;2290;48.674;9.018;2024-02-23T08:32:20;5.10;99.90
4556;DHT22;2290;48.674;9.018;2024-02-23T08:34:51;5.10;99.90
4556;DHT22;2290;48.674;9.018;2024-02-23T08:37:27;5.00;99.90
4556;DHT22;2290;48.674;9.018;2024-02-23T08:39:52;5.00;99.90
4556;DHT22;2290;48.674;9.018;2024-02-23T08:42:19;4.90;99.90
4556;DHT22;2290;48.674;9.018;2024-02-23T08:44:44;4.90;99.90
4556;DHT22;2290;48.674;9.018;2024-02-23T08:47:11;5.00;99.90
4556;DHT22;2290;48.674;9.018;2024-02-23T08:49:37;4.90;99.90
4556;DHT22;2290;48.674;9.018;2024-02-23T08:52:03;5.00;99.90
4556;DHT22;2290;48.674;9.018;2024-02-23T08:54:29;5.00;99.90
4556;DHT22;2290;48.674;9.018;2024-02-23T08:56:56;5.00;99.90
4556;DHT22;2290;48.674;9.018;2024-02-23T08:59:22;5.10;99.90
4556;DHT22;2290;48.674;9.018;2024-02-23T09:01:48;5.10;99.90
4556;DHT22;2290;48.674;9.018;2024-02-23T09:04:13;5.20;99.90
4556;DHT22;2290;48.674;9.018;2024-02-23T09:06:39;5.10;99.90
4556;DHT22;2290;48.674;9.018;2024-02-23T09:09:07;5.10;99.90
4556;DHT22;2290;48.674;9.018;2024-02-23T09:11:34;5.20;99.90
4556;DHT22;2290;48.674;9.018;2024-02-23T09:14:00;5.20;99.90
4556;DHT22;2290;48.674;9.018;2024-02-23T09:16:26;5.10;99.90
4556;DHT22;2290;48.674;9.018;2024-02-23T09:18:51;5.00;99.90
4556;DHT22;2290;48.674;9.018;2024-02-23T09:21:17;5.10;99.90
4556;DHT22;2290;48.674;9.018;2024-02-23T09:23:42;5.10;99.90
4556;DHT22;2290;48.674;9.018;2024-02-23T09:26:09;5.20;99.90
4556;DHT22;2290;48.674;9.018;2024-02-23T09:28:38;5.30;99.90
4556;DHT22;2290;48.674;9.018;2024-02-23T09:31:07;5.40;99.90
4556;DHT22;2290;48.674;9.018;2024-02-23T09:33:33;5.60;99.90
4556;DHT22;2290;48.674;9.018;2024-02-23T09:35:58;5.70;99.90
4556;DHT22;2290;48.674;9.018;2024-02-23T09:38:25;5.80;99.90
4556;DHT22;2290;48.674;9.018;2024-02-23T09:40:51;6.00;99.90
4556;DHT22;2290;48.674;9.018;2024-02-23T09:43:17;6.10;99.90
4556;DHT22;2290;48.674;9.018;2024-02-23T09:45:45;6.30;99.90
4556;DHT22;2290;48.674;9.018;2024-02-23T09:48:14;6.40;99.90
4556;DHT22;2290;48.674;9.018;2024-02-23T09:50:44;6.60;99.90
4556;DHT22;2290;48.674;9.018;2024-02-23T09:53:11;6.60;99.90
4556;DHT22;2290;48.674;9.018;2024-02-23T09:55:38;6.70;99.90
4556;DHT22;2290;48.674;9.018;2024-02-23T09:58:04;6.70;99.90
4556;DHT22;2290;48.674;9.018;2024-02-23T10:00:33;6.80;99.90
4556;DHT22;2290;48.674;9.018;2024-02-23T10:03:00;6.90;99.90
4556;DHT22;2290;48.674;9.018;2024-02-23T10:05:30;7.00;99.90
4556;DHT22;2290;48.674;9.018;2024-02-23T10:07:56;7.20;99.90
4556;DHT22;2290;48.674;9.018;2024-02-23T10:10:30;7.20;99.90
4556;DHT22;2290;48.674;9.018;2024-02-23T10:12:58;7.30;99.90
4556;DHT22;2290;48.674;9.018;2024-02-23T10:15:24;7.40;99.90
4556;DHT22;2290;48.674;9.018;2024-02-23T10:17:49;7.50;99.90
4556;DHT22;2290;48.674;9.018;2024-02-23T10:20:15;7.50;99.90
4556;DHT22;2290;48.674;9.018;2024-02-23T10:22:41;7.50;99.90
4556;DHT22;2290;48.674;9.018;2024-02-23T10:25:06;7.70;99.90
4556;DHT22;2290;48.674;9.018;2024-02-23T10:27:32;7.90;99.90
4556;DHT22;2290;48.674;9.018;2024-02-23T10:29:58;8.00;99.90
4556;DHT22;2290;48.674;9.018;2024-02-23T10:32:25;8.20;99.90
4556;DHT22;2290;48.674;9.018;2024-02-23T10:34:52;8.10;99.90
4556;DHT22;2290;48.674;9.018;2024-02-23T10:37:19;7.90;99.90
4556;DHT22;2290;48.674;9.018;2024-02-23T10:39:45;7.70;99.90
4556;DHT22;2290;48.674;9.018;2024-02-23T10:42:12;7.60;99.90
4556;DHT22;2290;48.674;9.018;2024-02-23T10:44:39;7.70;99.90
4556;DHT22;2290;48.674;9.018;2024-02-23T10:47:07;7.70;99.90
4556;DHT22;2290;48.674;9.018;2024-02-23T10:49:33;7.70;99.90
4556;DHT22;2290;48.674;9.018;2024-02-23T10:51:58;7.80;99.90
4556;DHT22;2290;48.674;9.018;2024-02-23T10:54:26;7.80;99.90
4556;DHT22;2290;48.674;9.018;2024-02-23T10:56:52;7.90;99.90
4556;DHT22;2290;48.674;9.018;2024-02-23T10:59:21;7.80;99.90
4556;DHT22;2290;48.674;9.018;2024-02-23T11:01:54;7.90;99.90
4556;DHT22;2290;48.674;9.018;2024-02-23T11:04:23;7.70;99.90
4556;DHT22;2290;48.674;9.018;2024-02-23T11:06:52;7.70;99.90
4556;DHT22;2290;48.674;9.018;2024-02-23T11:09:22;7.70;99.90
4556;DHT22;2290;48.674;9.018;2024-02-23T11:11:58;7.80;99.90
4556;DHT22;2290;48.674;9.018;2024-02-23T11:14:40;7.90;99.90
4556;DHT22;2290;48.674;9.018;2024-02-23T11:17:17;7.90;99.90
4556;DHT22;2290;48.674;9.018;2024-02-23T11:19:46;8.00;99.90
4556;DHT22;2290;48.674;9.018;2024-02-23T11:22:14;8.00;99.90
4556;DHT22;2290;48.674;9.018;2024-02-23T11:24:43;8.00;99.90
4556;DHT22;2290;48.674;9.018;2024-02-23T11:27:15;7.80;99.90
4556;DHT22;2290;48.674;9.018;2024-02-23T11:29:47;7.80;99.90
4556;DHT22;2290;48.674;9.018;2024-02-23T11:32:17;7.90;99.90
4556;DHT22;2290;48.674;9.018;2024-02-23T11:34:57;7.80;99.90
4556;DHT22;2290;48.674;9.018;2024-02-23T11:37:22;7.80;99.90
4556;DHT22;2290;48.674;9.018;2024-02-23T11:39:49;7.70;99.90
4556;DHT22;2290;48.674;9.018;2024-02-23T11:42:15;7.70;99.90
4556;DHT22;2290;48.674;9.018;2024-02-23T11:44:41;7.60;99.90
4556;DHT22;2290;48.674;9.018;2024-02-23T11:47:07;7.70;99.90
4556;DHT22;2290;48.674;9.018;2024-02-23T11:49:33;7.70;99.90
4556;DHT22;2290;48.674;9.018;2024-02-23T11:51:59;7.70;99.90
4556;DHT22;2290;48.674;9.018;2024-02-23T11:54:25;7.70;99.90
4556;DHT22;2290;48.674;9.018;2024-02-23T11:56:51;7.70;99.90
4556;DHT22;2290;48.674;9.018;2024-02-23T11:59:19;7.70;99.90
4556;DHT22;2290;48.674;9.018;2024-02-23T12:01:46;7.80;99.90
4556;DHT22;2290;48.674;9.018;2024-02-23T12:04:13;7.90;99.90
4556;DHT22;2290;48.674;9.018;2024-02-23T12:06:40;7.90;99.90
4556;DHT22;2290;48.674;9.018;2024-02-23T12:09:05;8.00;99.90
4556;DHT22;2290;48.674;9.018;2024-02-23T12:11:33;8.00;99.90
4556;DHT22;2290;48.674;9.018;2024-02-23T12:14:00;8.00;99.90
4556;DHT22;2290;48.674;9.018;2024-02-23T12:16:27;8.00;99.90
4556;DHT22;2290;48.674;9.018;2024-02-23T12:18:55;8.00;99.90
4556;DHT22;2290;48.674;9.018;2024-02-23T12:21:22;8.00;99.90
4556;DHT22;2290;48.674;9.018;2024-02-23T12:23:49;7.90;99.90
4556;DHT22;2290;48.674;9.018;2024-02-23T12:26:19;7.80;99.90
4556;DHT22;2290;48.674;9.018;2024-02-23T12:28:45;7.90;99.90
4556;DHT22;2290;48.674;9.018;2024-02-23T12:31:13;7.80;99.90
4556;DHT22;2290;48.674;9.018;2024-02-23T12:33:41;7.80;99.90
4556;DHT22;2290;48.674;9.018;2024-02-23T12:36:07;7.70;99.90
4556;DHT22;2290;48.674;9.018;2024-02-23T12:38:33;7.70;99.90
4556;DHT22;2290;48.674;9.018;2024-02-23T12:41:00;7.70;99.90
4556;DHT22;2290;48.674;9.018;2024-02-23T12:43:26;7.70;99.90
4556;DHT22;2290;48.674;9.018;2024-02-23T12:45:53;7.70;99.90
4556;DHT22;2290;48.674;9.018;2024-02-23T12:48:20;7.80;99.90
4556;DHT22;2290;48.674;9.018;2024-02-23T12:50:46;7.90;99.90
4556;DHT22;2290;48.674;9.018;2024-02-23T12:56:01;8.00;99.90
4556;DHT22;2290;48.674;9.018;2024-02-23T12:58:27;8.00;99.90
4556;DHT22;2290;48.674;9.018;2024-02-23T13:00:52;8.00;99.90
4556;DHT22;2290;48.674;9.018;2024-02-23T13:03:18;8.10;99.90
4556;DHT22;2290;48.674;9.018;2024-02-23T13:05:44;8.10;99.90
4556;DHT22;2290;48.674;9.018;2024-02-23T13:08:09;8.00;99.90
4556;DHT22;2290;48.674;9.018;2024-02-23T13:10:35;8.00;99.90
4556;DHT22;2290;48.674;9.018;2024-02-23T13:13:01;8.00;99.90
4556;DHT22;2290;48.674;9.018;2024-02-23T13:15:26;8.10;99.90
4556;DHT22;2290;48.674;9.018;2024-02-23T13:17:52;8.00;99.90
4556;DHT22;2290;48.674;9.018;2024-02-23T13:20:17;8.00;99.90
4556;DHT22;2290;48.674;9.018;2024-02-23T13:22:43;8.00;99.90
4556;DHT22;2290;48.674;9.018;2024-02-23T13:25:09;8.10;99.90
4556;DHT22;2290;48.674;9.018;2024-02-23T13:27:34;8.00;99.90
4556;DHT22;2290;48.674;9.018;2024-02-23T13:30:00;8.00;99.90
4556;DHT22;2290;48.674;9.018;2024-02-23T13:32:25;8.10;99.90
4556;DHT22;2290;48.674;9.018;2024-02-23T13:34:51;7.90;99.90
4556;DHT22;2290;48.674;9.018;2024-02-23T13:37:18;7.90;99.90
4556;DHT22;2290;48.674;9.018;2024-02-23T13:39:43;8.00;99.90
4556;DHT22;2290;48.674;9.018;2024-02-23T13:42:09;7.90;99.90
4556;DHT22;2290;48.674;9.018;2024-02-23T13:44:35;7.90;99.90
4556;DHT22;2290;48.674;9.018;2024-02-23T13:47:01;7.90;99.90
4556;DHT22;2290;48.674;9.018;2024-02-23T13:49:28;7.90;99.90
4556;DHT22;2290;48.674;9.018;2024-02-23T13:51:53;7.90;99.90
4556;DHT22;2290;48.674;9.018;2024-02-23T13:54:19;7.90;99.90
4556;DHT22;2290;48.674;9.018;2024-02-23T13:56:45;8.00;99.90
4556;DHT22;2290;48.674;9.018;2024-02-23T13:59:10;8.00;99.90
4556;DHT22;2290;48.674;9.018;2024-02-23T14:01:36;8.20;99.90
4556;DHT22;2290;48.674;9.018;2024-02-23T14:04:06;8.30;99.90
4556;DHT22;2290;48.674;9.018;2024-02-23T14:06:32;8.50;99.90
4556;DHT22;2290;48.674;9.018;2024-02-23T14:08:58;9.30;99.90
4556;DHT22;2290;48.674;9.018;2024-02-23T14:11:24;10.00;99.90
4556;DHT22;2290;48.674;9.018;2024-02-23T14:13:50;11.30;99.90
4556;DHT22;2290;48.674;9.018;2024-02-23T14:16:16;13.10;99.90
4556;DHT22;2290;48.674;9.018;2024-02-23T14:18:41;15.20;99.90
4556;DHT22;2290;48.674;9.018;2024-02-23T14:21:09;16.60;99.90
4556;DHT22;2290;48.674;9.018;2024-02-23T14:23:35;18.60;99.90
4556;DHT22;2290;48.674;9.018;2024-02-23T14:26:02;18.30;99.00
4556;DHT22;2290;48.674;9.018;2024-02-23T14:28:27;15.70;98.80
4556;DHT22;2290;48.674;9.018;2024-02-23T14:30:53;13.90;99.50
4556;DHT22;2290;48.674;9.018;2024-02-23T14:33:19;12.50;99.90
4556;DHT22;2290;48.674;9.018;2024-02-23T14:35:46;11.50;99.90
4556;DHT22;2290;48.674;9.018;2024-02-23T14:38:12;10.80;99.90
4556;DHT22;2290;48.674;9.018;2024-02-23T14:40:37;10.20;99.90
4556;DHT22;2290;48.674;9.018;2024-02-23T14:43:05;9.80;99.90
4556;DHT22;2290;48.674;9.018;2024-02-23T14:45:30;9.60;99.90
4556;DHT22;2290;48.674;9.018;2024-02-23T14:47:57;9.40;99.90
4556;DHT22;2290;48.674;9.018;2024-02-23T14:50:23;9.20;99.90
4556;DHT22;2290;48.674;9.018;2024-02-23T14:52:49;9.00;99.90
4556;DHT22;2290;48.674;9.018;2024-02-23T14:55:15;8.90;99.90
4556;DHT22;2290;48.674;9.018;2024-02-23T14:57:40;8.90;99.90
4556;DHT22;2290;48.674;9.018;2024-02-23T15:00:06;8.80;99.90
4556;DHT22;2290;48.674;9.018;2024-02-23T15:02:32;8.80;99.90
4556;DHT22;2290;48.674;9.018;2024-02-23T15:04:58;8.90;99.90
4556;DHT22;2290;48.674;9.018;2024-02-23T15:07:23;8.90;99.90
4556;DHT22;2290;48.674;9.018;2024-02-23T15:09:49;8.90;99.90
4556;DHT22;2290;48.674;9.018;2024-02-23T15:12:14;8.80;99.90
4556;DHT22;2290;48.674;9.018;2024-02-23T15:14:40;8.60;99.90
4556;DHT22;2290;48.674;9.018;2024-02-23T15:17:06;8.50;99.90
4556;DHT22;2290;48.674;9.018;2024-02-23T15:19:33;8.50;99.90
4556;DHT22;2290;48.674;9.018;2024-02-23T15:21:58;8.40;99.90
4556;DHT22;2290;48.674;9.018;2024-02-23T15:24:24;8.40;99.90
4556;DHT22;2290;48.674;9.018;2024-02-23T15:26:50;8.40;99.90
4556;DHT22;2290;48.674;9.018;2024-02-23T15:29:16;8.40;99.90
4556;DHT22;2290;48.674;9.018;2024-02-23T15:31:41;8.40;99.90
4556;DHT22;2290;48.674;9.018;2024-02-23T15:34:08;8.40;99.90
4556;DHT22;2290;48.674;9.018;2024-02-23T15:36:34;8.40;99.90
4556;DHT22;2290;48.674;9.018;2024-02-23T15:38:59;9.20;99.90
4556;DHT22;2290;48.674;9.018;2024-02-23T15:41:29;9.90;99.90
4556;DHT22;2290;48.674;9.018;2024-02-23T15:43:55;9.60;99.90
4556;DHT22;2290;48.674;9.018;2024-02-23T15:46:21;9.30;99.90
4556;DHT22;2290;48.674;9.018;2024-02-23T15:48:47;9.10;99.90
4556;DHT22;2290;48.674;9.018;2024-02-23T15:51:13;8.90;99.90
4556;DHT22;2290;48.674;9.018;2024-02-23T15:53:38;8.80;99.90
4556;DHT22;2290;48.674;9.018;2024-02-23T15:56:04;8.70;99.90
4556;DHT22;2290;48.674;9.018;2024-02-23T15:58:30;8.60;99.90
4556;DHT22;2290;48.674;9.018;2024-02-23T16:00:55;8.60;99.90
4556;DHT22;2290;48.674;9.018;2024-02-23T16:03:21;8.50;99.90
4556;DHT22;2290;48.674;9.018;2024-02-23T16:05:47;8.60;99.90
4556;DHT22;2290;48.674;9.018;2024-02-23T16:08:13;8.60;99.90
4556;DHT22;2290;48.674;9.018;2024-02-23T16:10:39;8.80;99.90
4556;DHT22;2290;48.674;9.018;2024-02-23T16:13:06;9.00;99.90
4556;DHT22;2290;48.674;9.018;2024-02-23T16:15:32;9.00;99.90